sensor_id;sensor_type;location;lat;lon;timestamp;pressure;altitude;pressure_sealevel;temperature;humidity
1926;BME280;964;42.606;23.588;2023-03-20T00:01:52;94845.88;;;25.34;23.70
1926;BME280;964;42.606;23.588;2023-03-20T00:04:18;94843.47;;;25.36;23.85
1926;BME280;964;42.606;23.588;2023-03-20T00:06:45;94844.88;;;25.88;23.04
1926;BME280;964;42.606;23.588;2023-03-20T00:09:12;94838.75;;;25.74;23.29
1926;BME280;964;42.606;23.588;2023-03-20T00:11:43;94843.88;;;25.60;23.24
1926;BME280;964;42.606;23.588;2023-03-20T00:14:16;94847.69;;;25.62;23.34
1926;BME280;964;42.606;23.588;2023-03-20T00:16:45;94845.81;;;25.47;23.33
1926;BME280;964;42.606;23.588;2023-03-20T00:19:15;94843.19;;;25.09;23.81
1926;BME280;964;42.606;23.588;2023-03-20T00:21:42;94836.09;;;24.73;24.28
1926;BME280;964;42.606;23.588;2023-03-20T00:24:12;94841.22;;;24.97;24.15
1926;BME280;964;42.606;23.588;2023-03-20T00:26:39;94836.66;;;25.19;23.84
1926;BME280;964;42.606;23.588;2023-03-20T00:29:06;94839.66;;;24.70;24.11
1926;BME280;964;42.606;23.588;2023-03-20T00:31:39;94832.84;;;24.66;24.22
1926;BME280;964;42.606;23.588;2023-03-20T00:34:11;94833.44;;;24.99;23.69
1926;BME280;964;42.606;23.588;2023-03-20T00:36:38;94826.22;;;25.30;23.52
1926;BME280;964;42.606;23.588;2023-03-20T00:39:05;94830.13;;;24.66;24.10
1926;BME280;964;42.606;23.588;2023-03-20T00:41:41;94828.72;;;23.30;25.63
1926;BME280;964;42.606;23.588;2023-03-20T00:44:18;94820.50;;;24.23;24.60
1926;BME280;964;42.606;23.588;2023-03-20T00:46:49;94815.69;;;24.56;24.32
1926;BME280;964;42.606;23.588;2023-03-20T00:49:18;94817.34;;;24.66;23.77
1926;BME280;964;42.606;23.588;2023-03-20T00:51:46;94814.28;;;24.64;24.08
1926;BME280;964;42.606;23.588;2023-03-20T00:54:15;94801.94;;;24.63;24.12
1926;BME280;964;42.606;23.588;2023-03-20T00:56:44;94799.91;;;25.05;23.57
1926;BME280;964;42.606;23.588;2023-03-20T00:59:16;94797.75;;;25.47;22.92
1926;BME280;964;42.606;23.588;2023-03-20T01:01:43;94797.28;;;25.61;23.09
1926;BME280;964;42.606;23.588;2023-03-20T01:04:13;94791.91;;;25.36;23.12
1926;BME280;964;42.606;23.588;2023-03-20T01:06:40;94801.09;;;25.17;23.53
1926;BME280;964;42.606;23.588;2023-03-20T01:09:07;94807.50;;;24.98;23.57
1926;BME280;964;42.606;23.588;2023-03-20T01:11:35;94802.38;;;24.74;23.85
1926;BME280;964;42.606;23.588;2023-03-20T01:14:03;94798.91;;;24.99;23.68
1926;BME280;964;42.606;23.588;2023-03-20T01:16:30;94801.50;;;25.28;23.08
1926;BME280;964;42.606;23.588;2023-03-20T01:18:57;94798.63;;;25.44;23.30
1926;BME280;964;42.606;23.588;2023-03-20T01:21:25;94797.81;;;25.22;23.29
1926;BME280;964;42.606;23.588;2023-03-20T01:23:52;94806.09;;;25.06;23.53
1926;BME280;964;42.606;23.588;2023-03-20T01:26:21;94805.88;;;24.87;23.72
1926;BME280;964;42.606;23.588;2023-03-20T01:28:50;94805.97;;;25.09;23.61
1926;BME280;964;42.606;23.588;2023-03-20T01:31:17;94803.47;;;25.15;23.63
1926;BME280;964;42.606;23.588;2023-03-20T01:33:44;94802.69;;;25.14;23.64
1926;BME280;964;42.606;23.588;2023-03-20T01:36:11;94793.72;;;24.79;23.71
1926;BME280;964;42.606;23.588;2023-03-20T01:38:40;94799.94;;;24.26;24.23
1926;BME280;964;42.606;23.588;2023-03-20T01:41:11;94803.75;;;23.71;25.59
1926;BME280;964;42.606;23.588;2023-03-20T01:43:39;94800.16;;;24.19;24.31
1926;BME280;964;42.606;23.588;2023-03-20T01:46:15;94800.28;;;24.28;24.18
1926;BME280;964;42.606;23.588;2023-03-20T01:51:52;94802.47;;;24.04;24.56
1926;BME280;964;42.606;23.588;2023-03-20T01:54:23;94807.44;;;24.06;24.62
1926;BME280;964;42.606;23.588;2023-03-20T01:56:53;94797.72;;;23.79;24.94
1926;BME280;964;42.606;23.588;2023-03-20T01:59:25;94803.66;;;23.74;24.59
1926;BME280;964;42.606;23.588;2023-03-20T02:01:53;94809.94;;;24.00;24.66
1926;BME280;964;42.606;23.588;2023-03-20T02:04:25;94809.94;;;24.13;24.46
1926;BME280;964;42.606;23.588;2023-03-20T02:06:53;94808.72;;;24.01;24.36
1926;BME280;964;42.606;23.588;2023-03-20T02:09:22;94810.22;;;23.89;24.72
1926;BME280;964;42.606;23.588;2023-03-20T02:11:48;94810.28;;;23.57;24.83
1926;BME280;964;42.606;23.588;2023-03-20T02:14:16;94813.94;;;23.51;24.95
1926;BME280;964;42.606;23.588;2023-03-20T02:16:42;94817.72;;;23.37;25.29
1926;BME280;964;42.606;23.588;2023-03-20T02:19:16;94812.06;;;23.64;24.54
1926;BME280;964;42.606;23.588;2023-03-20T02:22:23;94802.34;;;23.34;25.58
1926;BME280;964;42.606;23.588;2023-03-20T02:25:13;94806.50;;;23.83;24.58
1926;BME280;964;42.606;23.588;2023-03-20T02:28:06;94805.53;;;23.61;25.03
1926;BME280;964;42.606;23.588;2023-03-20T02:30:53;94796.25;;;23.62;24.89
1926;BME280;964;42.606;23.588;2023-03-20T02:33:48;94806.25;;;24.48;24.02
1926;BME280;964;42.606;23.588;2023-03-20T02:37:01;94795.66;;;24.66;23.77
1926;BME280;964;42.606;23.588;2023-03-20T02:39:44;94792.84;;;24.57;23.88
1926;BME280;964;42.606;23.588;2023-03-20T02:42:19;94794.69;;;24.85;23.80
1926;BME280;964;42.606;23.588;2023-03-20T02:44:54;94798.16;;;24.86;23.36
1926;BME280;964;42.606;23.588;2023-03-20T02:47:31;94802.16;;;24.81;23.40
1926;BME280;964;42.606;23.588;2023-03-20T02:50:11;94802.38;;;25.00;23.23
1926;BME280;964;42.606;23.588;2023-03-20T02:52:45;94799.31;;;24.47;23.77
1926;BME280;964;42.606;23.588;2023-03-20T02:55:19;94795.00;;;24.37;23.89
1926;BME280;964;42.606;23.588;2023-03-20T02:57:56;94789.25;;;24.73;23.50
1926;BME280;964;42.606;23.588;2023-03-20T03:00:27;94794.25;;;24.74;23.32
1926;BME280;964;42.606;23.588;2023-03-20T03:03:03;94792.06;;;24.44;23.58
1926;BME280;964;42.606;23.588;2023-03-20T03:05:36;94803.50;;;23.65;24.53
1926;BME280;964;42.606;23.588;2023-03-20T03:08:05;94798.31;;;23.42;25.40
1926;BME280;964;42.606;23.588;2023-03-20T03:10:39;94806.22;;;22.68;26.01
1926;BME280;964;42.606;23.588;2023-03-20T03:13:12;94797.13;;;22.94;26.11
1926;BME280;964;42.606;23.588;2023-03-20T03:15:42;94800.50;;;22.82;26.28
1926;BME280;964;42.606;23.588;2023-03-20T03:18:14;94809.16;;;22.38;26.23
1926;BME280;964;42.606;23.588;2023-03-20T03:20:43;94788.91;;;23.75;25.31
1926;BME280;964;42.606;23.588;2023-03-20T03:23:19;94786.97;;;23.31;25.61
1926;BME280;964;42.606;23.588;2023-03-20T03:25:50;94785.28;;;23.37;25.19
1926;BME280;964;42.606;23.588;2023-03-20T03:28:22;94789.84;;;23.56;25.07
1926;BME280;964;42.606;23.588;2023-03-20T03:30:52;94789.00;;;23.43;25.40
1926;BME280;964;42.606;23.588;2023-03-20T03:33:23;94788.28;;;23.71;24.81
1926;BME280;964;42.606;23.588;2023-03-20T03:35:53;94796.78;;;23.86;24.15
1926;BME280;964;42.606;23.588;2023-03-20T03:38:26;94798.38;;;23.38;24.88
1926;BME280;964;42.606;23.588;2023-03-20T03:41:09;94800.59;;;23.11;25.81
1926;BME280;964;42.606;23.588;2023-03-20T03:43:43;94802.53;;;23.27;25.21
1926;BME280;964;42.606;23.588;2023-03-20T03:46:14;94805.06;;;23.34;25.03
1926;BME280;964;42.606;23.588;2023-03-20T03:48:48;94803.53;;;23.49;25.08
1926;BME280;964;42.606;23.588;2023-03-20T03:51:19;94797.78;;;23.47;25.29
1926;BME280;964;42.606;23.588;2023-03-20T03:53:51;94788.28;;;23.71;25.04
1926;BME280;964;42.606;23.588;2023-03-20T03:56:22;94793.88;;;23.64;24.88
1926;BME280;964;42.606;23.588;2023-03-20T03:58:53;94797.09;;;23.59;25.21
1926;BME280;964;42.606;23.588;2023-03-20T04:01:22;94795.75;;;23.51;25.00
1926;BME280;964;42.606;23.588;2023-03-20T04:03:54;94798.72;;;23.57;24.41
1926;BME280;964;42.606;23.588;2023-03-20T04:06:24;94788.28;;;23.71;24.62
1926;BME280;964;42.606;23.588;2023-03-20T04:08:52;94797.22;;;23.68;24.85
1926;BME280;964;42.606;23.588;2023-03-20T04:11:21;94804.03;;;23.60;24.43
1926;BME280;964;42.606;23.588;2023-03-20T04:13:50;94798.47;;;23.19;24.73
1926;BME280;964;42.606;23.588;2023-03-20T04:16:18;94796.00;;;22.76;25.78
1926;BME280;964;42.606;23.588;2023-03-20T04:18:45;94790.53;;;22.95;25.40
1926;BME280;964;42.606;23.588;2023-03-20T04:21:13;94792.38;;;23.15;25.45
1926;BME280;964;42.606;23.588;2023-03-20T04:23:40;94795.50;;;22.45;26.57
1926;BME280;964;42.606;23.588;2023-03-20T04:26:07;94799.19;;;21.56;27.11
1926;BME280;964;42.606;23.588;2023-03-20T04:28:35;94791.03;;;22.90;25.90
1926;BME280;964;42.606;23.588;2023-03-20T04:31:02;94785.44;;;23.30;25.46
1926;BME280;964;42.606;23.588;2023-03-20T04:33:29;94786.38;;;22.75;26.18
1926;BME280;964;42.606;23.588;2023-03-20T04:35:56;94788.00;;;22.53;26.20
1926;BME280;964;42.606;23.588;2023-03-20T04:38:23;94778.19;;;23.43;25.52
1926;BME280;964;42.606;23.588;2023-03-20T04:40:50;94783.34;;;22.89;26.06
1926;BME280;964;42.606;23.588;2023-03-20T04:43:17;94781.25;;;23.13;25.97
1926;BME280;964;42.606;23.588;2023-03-20T04:45:45;94771.66;;;23.57;25.48
1926;BME280;964;42.606;23.588;2023-03-20T04:48:12;94775.75;;;23.77;25.17
1926;BME280;964;42.606;23.588;2023-03-20T04:50:39;94775.22;;;23.37;25.81
1926;BME280;964;42.606;23.588;2023-03-20T04:53:05;94786.94;;;23.63;25.23
1926;BME280;964;42.606;23.588;2023-03-20T04:55:32;94782.66;;;24.07;25.13
1926;BME280;964;42.606;23.588;2023-03-20T04:57:59;94785.13;;;24.02;25.11
1926;BME280;964;42.606;23.588;2023-03-20T05:00:25;94787.31;;;23.49;25.69
1926;BME280;964;42.606;23.588;2023-03-20T05:02:53;94784.59;;;24.73;24.60
1926;BME280;964;42.606;23.588;2023-03-20T05:05:20;94783.28;;;24.53;24.81
1926;BME280;964;42.606;23.588;2023-03-20T05:07:48;94775.69;;;24.60;24.94
1926;BME280;964;42.606;23.588;2023-03-20T05:10:16;94780.53;;;25.28;24.05
1926;BME280;964;42.606;23.588;2023-03-20T05:12:42;94780.41;;;25.57;23.80
1926;BME280;964;42.606;23.588;2023-03-20T05:15:10;94778.28;;;25.96;23.80
1926;BME280;964;42.606;23.588;2023-03-20T05:17:36;94789.09;;;25.87;23.59
1926;BME280;964;42.606;23.588;2023-03-20T05:20:06;94791.47;;;26.06;23.60
1926;BME280;964;42.606;23.588;2023-03-20T05:22:32;94805.66;;;25.67;23.97
1926;BME280;964;42.606;23.588;2023-03-20T05:24:59;94802.03;;;25.82;23.98
1926;BME280;964;42.606;23.588;2023-03-20T05:27:26;94807.34;;;25.14;24.30
1926;BME280;964;42.606;23.588;2023-03-20T05:29:53;94820.81;;;25.30;24.10
1926;BME280;964;42.606;23.588;2023-03-20T05:32:19;94806.69;;;26.47;23.23
1926;BME280;964;42.606;23.588;2023-03-20T05:34:46;94800.75;;;26.70;23.00
1926;BME280;964;42.606;23.588;2023-03-20T05:37:14;94803.56;;;26.89;22.63
1926;BME280;964;42.606;23.588;2023-03-20T05:39:41;94803.03;;;26.41;22.94
1926;BME280;964;42.606;23.588;2023-03-20T05:42:07;94802.53;;;27.35;22.23
1926;BME280;964;42.606;23.588;2023-03-20T05:44:34;94793.34;;;27.69;22.19
1926;BME280;964;42.606;23.588;2023-03-20T05:47:01;94798.94;;;27.84;22.15
1926;BME280;964;42.606;23.588;2023-03-20T05:49:28;94790.19;;;28.16;21.63
1926;BME280;964;42.606;23.588;2023-03-20T05:51:55;94793.50;;;28.20;21.84
1926;BME280;964;42.606;23.588;2023-03-20T05:54:23;94800.78;;;28.05;21.94
1926;BME280;964;42.606;23.588;2023-03-20T05:56:49;94808.66;;;27.94;22.20
1926;BME280;964;42.606;23.588;2023-03-20T05:59:16;94802.59;;;28.17;21.87
1926;BME280;964;42.606;23.588;2023-03-20T06:01:43;94808.06;;;28.08;21.96
1926;BME280;964;42.606;23.588;2023-03-20T06:04:09;94811.06;;;28.01;22.19
1926;BME280;964;42.606;23.588;2023-03-20T06:06:36;94805.56;;;28.46;22.08
1926;BME280;964;42.606;23.588;2023-03-20T06:09:02;94810.59;;;28.90;21.66
1926;BME280;964;42.606;23.588;2023-03-20T06:11:31;94807.28;;;28.86;21.83
1926;BME280;964;42.606;23.588;2023-03-20T06:13:57;94812.03;;;29.09;21.57
1926;BME280;964;42.606;23.588;2023-03-20T06:16:24;94814.09;;;29.23;21.36
1926;BME280;964;42.606;23.588;2023-03-20T06:18:51;94804.31;;;29.40;21.27
1926;BME280;964;42.606;23.588;2023-03-20T06:21:18;94806.75;;;29.38;21.13
1926;BME280;964;42.606;23.588;2023-03-20T06:23:45;94806.00;;;29.61;20.92
1926;BME280;964;42.606;23.588;2023-03-20T06:26:12;94807.69;;;29.35;21.18
1926;BME280;964;42.606;23.588;2023-03-20T06:28:40;94809.03;;;29.63;20.91
1926;BME280;964;42.606;23.588;2023-03-20T06:31:07;94807.97;;;29.61;21.06
1926;BME280;964;42.606;23.588;2023-03-20T06:33:34;94809.50;;;29.86;20.67
1926;BME280;964;42.606;23.588;2023-03-20T06:36:02;94801.72;;;30.08;20.29
1926;BME280;964;42.606;23.588;2023-03-20T06:38:29;94806.03;;;30.53;19.83
1926;BME280;964;42.606;23.588;2023-03-20T06:40:56;94804.19;;;30.35;19.89
1926;BME280;964;42.606;23.588;2023-03-20T06:43:22;94803.09;;;30.56;19.46
1926;BME280;964;42.606;23.588;2023-03-20T06:45:51;94798.66;;;30.44;19.76
1926;BME280;964;42.606;23.588;2023-03-20T06:48:17;94799.66;;;30.91;19.24
1926;BME280;964;42.606;23.588;2023-03-20T06:50:46;94795.97;;;30.94;19.44
1926;BME280;964;42.606;23.588;2023-03-20T06:53:13;94791.00;;;31.62;18.80
1926;BME280;964;42.606;23.588;2023-03-20T06:55:41;94801.16;;;31.41;18.92
1926;BME280;964;42.606;23.588;2023-03-20T06:58:07;94795.16;;;31.78;18.84
1926;BME280;964;42.606;23.588;2023-03-20T07:00:34;94798.84;;;32.15;19.13
1926;BME280;964;42.606;23.588;2023-03-20T07:03:03;94791.44;;;32.01;19.01
1926;BME280;964;42.606;23.588;2023-03-20T07:05:30;94787.22;;;32.26;19.06
1926;BME280;964;42.606;23.588;2023-03-20T07:07:57;94778.97;;;32.46;18.88
1926;BME280;964;42.606;23.588;2023-03-20T07:10:23;94785.59;;;32.39;18.81
1926;BME280;964;42.606;23.588;2023-03-20T07:12:50;94793.59;;;31.91;18.62
1926;BME280;964;42.606;23.588;2023-03-20T07:15:17;94783.03;;;32.30;18.38
1926;BME280;964;42.606;23.588;2023-03-20T07:17:44;94784.25;;;32.81;18.34
1926;BME280;964;42.606;23.588;2023-03-20T07:20:13;94777.09;;;33.31;18.03
1926;BME280;964;42.606;23.588;2023-03-20T07:22:40;94775.31;;;33.71;17.98
1926;BME280;964;42.606;23.588;2023-03-20T07:25:08;94764.31;;;34.63;17.53
1926;BME280;964;42.606;23.588;2023-03-20T07:27:35;94779.53;;;34.36;17.42
1926;BME280;964;42.606;23.588;2023-03-20T07:30:02;94761.03;;;34.59;17.73
1926;BME280;964;42.606;23.588;2023-03-20T07:32:29;94771.31;;;34.70;17.71
1926;BME280;964;42.606;23.588;2023-03-20T07:34:56;94764.94;;;35.47;16.98
1926;BME280;964;42.606;23.588;2023-03-20T07:37:24;94765.25;;;35.32;17.06
1926;BME280;964;42.606;23.588;2023-03-20T07:39:50;94762.81;;;34.90;17.25
1926;BME280;964;42.606;23.588;2023-03-20T07:42:17;94760.75;;;35.02;16.64
1926;BME280;964;42.606;23.588;2023-03-20T07:44:44;94760.78;;;34.96;16.87
1926;BME280;964;42.606;23.588;2023-03-20T07:47:11;94763.47;;;35.35;16.91
1926;BME280;964;42.606;23.588;2023-03-20T07:49:37;94764.78;;;34.84;16.84
1926;BME280;964;42.606;23.588;2023-03-20T07:52:05;94765.78;;;35.03;17.06
1926;BME280;964;42.606;23.588;2023-03-20T07:54:33;94764.72;;;35.39;17.10
1926;BME280;964;42.606;23.588;2023-03-20T07:57:00;94763.47;;;35.35;16.96
1926;BME280;964;42.606;23.588;2023-03-20T07:59:27;94759.19;;;35.51;17.07
1926;BME280;964;42.606;23.588;2023-03-20T08:01:54;94759.69;;;36.12;16.61
1926;BME280;964;42.606;23.588;2023-03-20T08:04:21;94762.19;;;36.57;16.21
1926;BME280;964;42.606;23.588;2023-03-20T08:06:48;94758.16;;;36.58;15.76
1926;BME280;964;42.606;23.588;2023-03-20T08:09:15;94753.78;;;36.32;16.45
1926;BME280;964;42.606;23.588;2023-03-20T08:11:43;94758.84;;;36.28;16.08
1926;BME280;964;42.606;23.588;2023-03-20T08:14:10;94767.69;;;36.57;16.79
1926;BME280;964;42.606;23.588;2023-03-20T08:16:37;94768.72;;;36.54;16.61
1926;BME280;964;42.606;23.588;2023-03-20T08:19:04;94766.09;;;37.26;15.58
1926;BME280;964;42.606;23.588;2023-03-20T08:21:31;94762.06;;;37.52;15.73
1926;BME280;964;42.606;23.588;2023-03-20T08:23:58;94765.50;;;38.19;15.43
1926;BME280;964;42.606;23.588;2023-03-20T08:26:25;94768.63;;;38.98;14.67
1926;BME280;964;42.606;23.588;2023-03-20T08:28:53;94755.44;;;39.44;13.81
1926;BME280;964;42.606;23.588;2023-03-20T08:31:20;94761.88;;;39.78;14.40
1926;BME280;964;42.606;23.588;2023-03-20T08:33:47;94752.91;;;40.53;13.86
1926;BME280;964;42.606;23.588;2023-03-20T08:36:15;94757.19;;;40.95;13.73
1926;BME280;964;42.606;23.588;2023-03-20T08:38:44;94754.66;;;40.97;13.97
1926;BME280;964;42.606;23.588;2023-03-20T08:41:11;94754.09;;;40.24;14.03
1926;BME280;964;42.606;23.588;2023-03-20T08:43:38;94756.94;;;41.06;13.40
1926;BME280;964;42.606;23.588;2023-03-20T08:46:07;94756.75;;;41.04;14.00
1926;BME280;964;42.606;23.588;2023-03-20T08:48:34;94744.13;;;41.88;13.03
1926;BME280;964;42.606;23.588;2023-03-20T08:51:01;94738.44;;;41.73;13.08
1926;BME280;964;42.606;23.588;2023-03-20T08:53:27;94742.03;;;41.25;14.07
1926;BME280;964;42.606;23.588;2023-03-20T08:55:54;94742.50;;;41.08;13.33
1926;BME280;964;42.606;23.588;2023-03-20T08:58:21;94739.72;;;42.00;13.63
1926;BME280;964;42.606;23.588;2023-03-20T09:00:48;94734.22;;;41.44;13.76
1926;BME280;964;42.606;23.588;2023-03-20T09:03:18;94745.28;;;40.87;13.83
1926;BME280;964;42.606;23.588;2023-03-20T09:05:47;94741.34;;;41.32;13.16
1926;BME280;964;42.606;23.588;2023-03-20T09:08:14;94739.66;;;41.29;12.76
1926;BME280;964;42.606;23.588;2023-03-20T09:10:41;94732.78;;;42.30;12.97
1926;BME280;964;42.606;23.588;2023-03-20T09:13:08;94719.97;;;43.33;12.37
1926;BME280;964;42.606;23.588;2023-03-20T09:15:35;94716.69;;;42.66;12.35
1926;BME280;964;42.606;23.588;2023-03-20T09:18:02;94721.69;;;42.90;11.73
1926;BME280;964;42.606;23.588;2023-03-20T09:20:30;94718.34;;;42.69;11.93
1926;BME280;964;42.606;23.588;2023-03-20T09:22:57;94722.28;;;42.08;12.85
1926;BME280;964;42.606;23.588;2023-03-20T09:25:23;94717.22;;;42.72;11.89
1926;BME280;964;42.606;23.588;2023-03-20T09:27:51;94714.63;;;42.67;12.53
1926;BME280;964;42.606;23.588;2023-03-20T09:30:19;94705.63;;;43.52;11.85
1926;BME280;964;42.606;23.588;2023-03-20T09:32:46;94698.97;;;43.94;11.40
1926;BME280;964;42.606;23.588;2023-03-20T09:35:13;94705.97;;;43.63;11.30
1926;BME280;964;42.606;23.588;2023-03-20T09:37:42;94701.03;;;42.78;11.67
1926;BME280;964;42.606;23.588;2023-03-20T09:40:19;94695.66;;;42.65;12.17
1926;BME280;964;42.606;23.588;2023-03-20T09:42:52;94680.19;;;43.87;11.50
1926;BME280;964;42.606;23.588;2023-03-20T09:45:40;94682.22;;;43.94;11.56
1926;BME280;964;42.606;23.588;2023-03-20T09:48:13;94663.47;;;45.36;11.42
1926;BME280;964;42.606;23.588;2023-03-20T09:50:45;94671.13;;;45.53;10.89
1926;BME280;964;42.606;23.588;2023-03-20T09:53:21;94666.22;;;45.88;11.66
1926;BME280;964;42.606;23.588;2023-03-20T09:55:51;94668.09;;;44.74;11.27
1926;BME280;964;42.606;23.588;2023-03-20T09:58:22;94659.34;;;44.95;11.37
1926;BME280;964;42.606;23.588;2023-03-20T10:00:55;94662.41;;;44.08;11.62
1926;BME280;964;42.606;23.588;2023-03-20T10:03:26;94657.25;;;45.03;11.45
1926;BME280;964;42.606;23.588;2023-03-20T10:05:57;94656.75;;;43.28;12.03
1926;BME280;964;42.606;23.588;2023-03-20T10:08:31;94659.84;;;43.94;12.01
1926;BME280;964;42.606;23.588;2023-03-20T10:11:05;94643.59;;;43.68;12.29
1926;BME280;964;42.606;23.588;2023-03-20T10:13:50;94644.53;;;42.55;12.16
1926;BME280;964;42.606;23.588;2023-03-20T10:16:30;94629.16;;;43.39;12.21
1926;BME280;964;42.606;23.588;2023-03-20T10:19:04;94633.59;;;42.65;12.45
1926;BME280;964;42.606;23.588;2023-03-20T10:21:38;94622.75;;;43.07;12.22
1926;BME280;964;42.606;23.588;2023-03-20T10:24:15;94617.47;;;43.33;11.93
1926;BME280;964;42.606;23.588;2023-03-20T10:26:46;94628.28;;;41.93;12.23
1926;BME280;964;42.606;23.588;2023-03-20T10:29:21;94619.25;;;40.92;13.04
1926;BME280;964;42.606;23.588;2023-03-20T10:31:56;94596.91;;;43.14;11.31
1926;BME280;964;42.606;23.588;2023-03-20T10:34:42;94591.00;;;44.14;11.26
1926;BME280;964;42.606;23.588;2023-03-20T10:37:21;94601.25;;;44.44;11.70
1926;BME280;964;42.606;23.588;2023-03-20T10:40:04;94579.59;;;45.55;10.58
1926;BME280;964;42.606;23.588;2023-03-20T10:42:44;94583.75;;;45.20;11.25
1926;BME280;964;42.606;23.588;2023-03-20T10:45:26;94586.47;;;43.62;11.69
1926;BME280;964;42.606;23.588;2023-03-20T10:47:56;94589.59;;;43.26;11.49
1926;BME280;964;42.606;23.588;2023-03-20T10:50:28;94587.75;;;43.21;11.56
1926;BME280;964;42.606;23.588;2023-03-20T10:52:59;94579.44;;;44.18;11.47
1926;BME280;964;42.606;23.588;2023-03-20T10:55:31;94577.91;;;45.08;11.49
1926;BME280;964;42.606;23.588;2023-03-20T10:58:04;94566.72;;;45.08;10.56
1926;BME280;964;42.606;23.588;2023-03-20T11:00:36;94568.41;;;44.69;11.33
1926;BME280;964;42.606;23.588;2023-03-20T11:03:03;94561.19;;;45.62;10.32
1926;BME280;964;42.606;23.588;2023-03-20T11:05:32;94563.09;;;44.56;11.39
1926;BME280;964;42.606;23.588;2023-03-20T11:08:01;94562.09;;;44.44;11.87
1926;BME280;964;42.606;23.588;2023-03-20T11:10:32;94552.06;;;44.41;11.54
1926;BME280;964;42.606;23.588;2023-03-20T11:13:11;94557.00;;;44.50;11.61
1926;BME280;964;42.606;23.588;2023-03-20T11:15:41;94549.31;;;44.58;11.13
1926;BME280;964;42.606;23.588;2023-03-20T11:18:10;94546.44;;;44.83;10.72
1926;BME280;964;42.606;23.588;2023-03-20T11:20:44;94541.94;;;44.46;11.51
1926;BME280;964;42.606;23.588;2023-03-20T11:23:15;94536.34;;;44.70;11.35
1926;BME280;964;42.606;23.588;2023-03-20T11:25:49;94532.47;;;45.34;10.73
1926;BME280;964;42.606;23.588;2023-03-20T11:31:04;94524.09;;;45.44;11.20
1926;BME280;964;42.606;23.588;2023-03-20T11:33:36;94517.97;;;45.55;11.31
1926;BME280;964;42.606;23.588;2023-03-20T11:36:10;94515.09;;;45.36;11.44
1926;BME280;964;42.606;23.588;2023-03-20T11:38:43;94513.31;;;44.97;11.07
1926;BME280;964;42.606;23.588;2023-03-20T11:41:18;94499.56;;;46.15;10.19
1926;BME280;964;42.606;23.588;2023-03-20T11:43:45;94494.97;;;46.20;10.67
1926;BME280;964;42.606;23.588;2023-03-20T11:46:12;94494.09;;;45.81;10.47
1926;BME280;964;42.606;23.588;2023-03-20T11:48:41;94497.03;;;46.10;10.55
1926;BME280;964;42.606;23.588;2023-03-20T11:51:10;94499.81;;;45.03;10.70
1926;BME280;964;42.606;23.588;2023-03-20T11:53:41;94488.69;;;45.66;10.06
1926;BME280;964;42.606;23.588;2023-03-20T11:56:21;94495.53;;;45.02;10.42
1926;BME280;964;42.606;23.588;2023-03-20T11:58:54;94481.91;;;45.96;10.60
1926;BME280;964;42.606;23.588;2023-03-20T12:01:23;94479.44;;;46.55;10.15
1926;BME280;964;42.606;23.588;2023-03-20T12:03:51;94473.94;;;46.02;10.16
1926;BME280;964;42.606;23.588;2023-03-20T12:06:22;94473.31;;;46.40;10.27
1926;BME280;964;42.606;23.588;2023-03-20T12:08:52;94460.03;;;47.77;9.46
1926;BME280;964;42.606;23.588;2023-03-20T12:11:35;94456.59;;;47.97;9.60
1926;BME280;964;42.606;23.588;2023-03-20T12:14:09;94465.25;;;46.53;8.87
1926;BME280;964;42.606;23.588;2023-03-20T12:16:38;94463.91;;;46.45;10.00
1926;BME280;964;42.606;23.588;2023-03-20T12:19:11;94459.09;;;47.53;9.08
1926;BME280;964;42.606;23.588;2023-03-20T12:21:45;94447.75;;;47.41;9.51
1926;BME280;964;42.606;23.588;2023-03-20T12:24:18;94447.31;;;48.80;9.29
1926;BME280;964;42.606;23.588;2023-03-20T12:26:57;94439.50;;;48.90;8.77
1926;BME280;964;42.606;23.588;2023-03-20T12:29:29;94434.44;;;48.77;8.32
1926;BME280;964;42.606;23.588;2023-03-20T12:32:01;94436.50;;;47.41;9.18
1926;BME280;964;42.606;23.588;2023-03-20T12:34:33;94423.56;;;48.83;8.81
1926;BME280;964;42.606;23.588;2023-03-20T12:37:00;94425.25;;;50.00;8.78
1926;BME280;964;42.606;23.588;2023-03-20T12:39:31;94418.09;;;50.45;8.29
1926;BME280;964;42.606;23.588;2023-03-20T12:42:08;94410.06;;;50.05;8.81
1926;BME280;964;42.606;23.588;2023-03-20T12:44:43;94402.06;;;51.37;8.07
1926;BME280;964;42.606;23.588;2023-03-20T12:47:24;94402.84;;;51.52;8.12
1926;BME280;964;42.606;23.588;2023-03-20T12:49:58;94410.31;;;50.09;8.45
1926;BME280;964;42.606;23.588;2023-03-20T12:52:40;94416.66;;;47.89;9.02
1926;BME280;964;42.606;23.588;2023-03-20T12:55:21;94401.50;;;49.80;8.42
1926;BME280;964;42.606;23.588;2023-03-20T12:58:01;94396.97;;;49.75;8.13
1926;BME280;964;42.606;23.588;2023-03-20T13:00:33;94399.88;;;50.60;8.41
1926;BME280;964;42.606;23.588;2023-03-20T13:03:21;94397.66;;;50.10;8.12
1926;BME280;964;42.606;23.588;2023-03-20T13:05:56;94382.84;;;50.46;8.26
1926;BME280;964;42.606;23.588;2023-03-20T13:08:43;94394.34;;;49.32;8.15
1926;BME280;964;42.606;23.588;2023-03-20T13:11:19;94392.16;;;49.42;7.32
1926;BME280;964;42.606;23.588;2023-03-20T13:13:51;94387.28;;;49.54;7.76
1926;BME280;964;42.606;23.588;2023-03-20T13:16:27;94385.97;;;50.27;7.98
1926;BME280;964;42.606;23.588;2023-03-20T13:19:02;94380.75;;;51.09;7.65
1926;BME280;964;42.606;23.588;2023-03-20T13:21:32;94377.91;;;50.59;7.49
1926;BME280;964;42.606;23.588;2023-03-20T13:24:08;94376.00;;;49.54;7.85
1926;BME280;964;42.606;23.588;2023-03-20T13:26:44;94369.19;;;50.18;7.65
1926;BME280;964;42.606;23.588;2023-03-20T13:29:20;94370.72;;;49.37;7.39
1926;BME280;964;42.606;23.588;2023-03-20T13:31:58;94357.56;;;51.24;7.18
1926;BME280;964;42.606;23.588;2023-03-20T13:34:47;94344.69;;;52.30;7.48
1926;BME280;964;42.606;23.588;2023-03-20T13:37:20;94354.34;;;50.17;7.27
1926;BME280;964;42.606;23.588;2023-03-20T13:39:59;94350.72;;;50.77;7.12
1926;BME280;964;42.606;23.588;2023-03-20T13:42:29;94358.97;;;49.76;6.90
1926;BME280;964;42.606;23.588;2023-03-20T13:45:03;94342.19;;;50.26;7.11
1926;BME280;964;42.606;23.588;2023-03-20T13:47:32;94340.84;;;50.27;7.32